sensor_id;sensor_type;location;lat;lon;timestamp;P1;durP1;ratioP1;P2;durP2;ratioP2
13208;SDS011;6669;42.678;23.332;2023-04-30T00:00:44;12.43;;;9.30;;
13208;SDS011;6669;42.678;23.332;2023-04-30T00:03:12;36.93;;;20.50;;
13208;SDS011;6669;42.678;23.332;2023-04-30T00:05:41;13.43;;;8.53;;
13208;SDS011;6669;42.678;23.332;2023-04-30T00:08:09;23.77;;;14.90;;
13208;SDS011;6669;42.678;23.332;2023-04-30T00:10:37;31.50;;;17.87;;
13208;SDS011;6669;42.678;23.332;2023-04-30T00:13:05;20.33;;;12.83;;
13208;SDS011;6669;42.678;23.332;2023-04-30T00:15:33;12.23;;;9.13;;
13208;SDS011;6669;42.678;23.332;2023-04-30T00:18:01;16.40;;;11.07;;
13208;SDS011;6669;42.678;23.332;2023-04-30T00:20:31;20.43;;;12.53;;
13208;SDS011;6669;42.678;23.332;2023-04-30T00:23:01;14.67;;;9.30;;
13208;SDS011;6669;42.678;23.332;2023-04-30T00:25:29;10.67;;;8.40;;
13208;SDS011;6669;42.678;23.332;2023-04-30T00:27:57;10.73;;;8.30;;
13208;SDS011;6669;42.678;23.332;2023-04-30T00:30:25;9.83;;;8.20;;
13208;SDS011;6669;42.678;23.332;2023-04-30T00:32:53;11.13;;;8.40;;
13208;SDS011;6669;42.678;23.332;2023-04-30T00:35:21;12.37;;;8.03;;
13208;SDS011;6669;42.678;23.332;2023-04-30T00:37:49;11.00;;;8.00;;
13208;SDS011;6669;42.678;23.332;2023-04-30T00:40:18;10.87;;;8.13;;
13208;SDS011;6669;42.678;23.332;2023-04-30T00:42:46;13.30;;;8.40;;
13208;SDS011;6669;42.678;23.332;2023-04-30T00:45:15;9.93;;;7.70;;
13208;SDS011;6669;42.678;23.332;2023-04-30T00:47:47;10.43;;;8.20;;
13208;SDS011;6669;42.678;23.332;2023-04-30T00:50:15;9.47;;;8.13;;
13208;SDS011;6669;42.678;23.332;2023-04-30T00:52:43;10.73;;;7.83;;
13208;SDS011;6669;42.678;23.332;2023-04-30T00:55:12;10.30;;;8.13;;
13208;SDS011;6669;42.678;23.332;2023-04-30T00:57:41;11.00;;;7.73;;
13208;SDS011;6669;42.678;23.332;2023-04-30T01:00:10;9.43;;;7.83;;
13208;SDS011;6669;42.678;23.332;2023-04-30T01:02:39;9.90;;;7.23;;
13208;SDS011;6669;42.678;23.332;2023-04-30T01:05:07;9.93;;;7.63;;
13208;SDS011;6669;42.678;23.332;2023-04-30T01:07:36;8.07;;;7.20;;
13208;SDS011;6669;42.678;23.332;2023-04-30T01:10:10;10.17;;;8.03;;
13208;SDS011;6669;42.678;23.332;2023-04-30T01:12:49;8.33;;;7.30;;
13208;SDS011;6669;42.678;23.332;2023-04-30T01:15:26;8.07;;;6.50;;
13208;SDS011;6669;42.678;23.332;2023-04-30T01:18:00;11.03;;;6.90;;
13208;SDS011;6669;42.678;23.332;2023-04-30T01:20:31;7.93;;;6.27;;
13208;SDS011;6669;42.678;23.332;2023-04-30T01:23:01;8.07;;;6.60;;
13208;SDS011;6669;42.678;23.332;2023-04-30T01:25:43;8.77;;;6.63;;
13208;SDS011;6669;42.678;23.332;2023-04-30T01:28:20;6.40;;;5.67;;
13208;SDS011;6669;42.678;23.332;2023-04-30T01:30:50;8.17;;;6.33;;
13208;SDS011;6669;42.678;23.332;2023-04-30T01:33:18;7.43;;;5.73;;
13208;SDS011;6669;42.678;23.332;2023-04-30T01:36:08;7.50;;;6.10;;
13208;SDS011;6669;42.678;23.332;2023-04-30T01:39:06;6.90;;;6.20;;
13208;SDS011;6669;42.678;23.332;2023-04-30T01:41:47;7.10;;;6.10;;
13208;SDS011;6669;42.678;23.332;2023-04-30T01:44:31;9.97;;;6.93;;
13208;SDS011;6669;42.678;23.332;2023-04-30T01:47:14;7.43;;;6.03;;
13208;SDS011;6669;42.678;23.332;2023-04-30T01:49:50;8.20;;;6.50;;
13208;SDS011;6669;42.678;23.332;2023-04-30T01:52:28;7.13;;;6.17;;
13208;SDS011;6669;42.678;23.332;2023-04-30T01:55:04;6.63;;;5.80;;
13208;SDS011;6669;42.678;23.332;2023-04-30T01:57:39;10.53;;;6.43;;
13208;SDS011;6669;42.678;23.332;2023-04-30T02:00:10;7.47;;;6.17;;
13208;SDS011;6669;42.678;23.332;2023-04-30T02:02:40;6.93;;;5.67;;
13208;SDS011;6669;42.678;23.332;2023-04-30T02:05:08;8.70;;;6.33;;
13208;SDS011;6669;42.678;23.332;2023-04-30T02:07:37;7.27;;;6.50;;
13208;SDS011;6669;42.678;23.332;2023-04-30T02:10:07;7.60;;;6.60;;
13208;SDS011;6669;42.678;23.332;2023-04-30T02:12:37;8.37;;;6.57;;
13208;SDS011;6669;42.678;23.332;2023-04-30T02:15:06;8.53;;;6.50;;
13208;SDS011;6669;42.678;23.332;2023-04-30T02:17:36;8.40;;;6.40;;
13208;SDS011;6669;42.678;23.332;2023-04-30T02:20:04;8.30;;;6.77;;
13208;SDS011;6669;42.678;23.332;2023-04-30T02:22:33;6.70;;;6.00;;
13208;SDS011;6669;42.678;23.332;2023-04-30T02:25:01;8.07;;;6.43;;
13208;SDS011;6669;42.678;23.332;2023-04-30T02:27:30;7.40;;;6.60;;
13208;SDS011;6669;42.678;23.332;2023-04-30T02:29:59;8.90;;;7.07;;
13208;SDS011;6669;42.678;23.332;2023-04-30T02:32:27;7.47;;;6.47;;
13208;SDS011;6669;42.678;23.332;2023-04-30T02:34:57;7.60;;;6.50;;
13208;SDS011;6669;42.678;23.332;2023-04-30T02:37:25;8.20;;;6.87;;
13208;SDS011;6669;42.678;23.332;2023-04-30T02:39:53;8.40;;;7.03;;
13208;SDS011;6669;42.678;23.332;2023-04-30T02:42:21;9.43;;;6.70;;
13208;SDS011;6669;42.678;23.332;2023-04-30T02:44:49;7.73;;;6.47;;
13208;SDS011;6669;42.678;23.332;2023-04-30T02:47:17;8.30;;;6.40;;
13208;SDS011;6669;42.678;23.332;2023-04-30T02:49:45;7.33;;;6.60;;
13208;SDS011;6669;42.678;23.332;2023-04-30T02:52:15;9.43;;;6.43;;
13208;SDS011;6669;42.678;23.332;2023-04-30T02:54:43;7.37;;;6.27;;
13208;SDS011;6669;42.678;23.332;2023-04-30T02:57:12;7.93;;;6.73;;
13208;SDS011;6669;42.678;23.332;2023-04-30T02:59:39;6.33;;;5.73;;
13208;SDS011;6669;42.678;23.332;2023-04-30T03:02:11;9.43;;;6.00;;
13208;SDS011;6669;42.678;23.332;2023-04-30T03:04:39;6.20;;;5.60;;
13208;SDS011;6669;42.678;23.332;2023-04-30T03:07:07;8.97;;;5.83;;
13208;SDS011;6669;42.678;23.332;2023-04-30T03:09:36;6.63;;;5.90;;
13208;SDS011;6669;42.678;23.332;2023-04-30T03:12:04;6.60;;;5.90;;
13208;SDS011;6669;42.678;23.332;2023-04-30T03:14:32;7.77;;;6.07;;
13208;SDS011;6669;42.678;23.332;2023-04-30T03:17:00;7.90;;;6.10;;
13208;SDS011;6669;42.678;23.332;2023-04-30T03:19:28;7.07;;;5.50;;
13208;SDS011;6669;42.678;23.332;2023-04-30T03:21:57;7.20;;;6.13;;
13208;SDS011;6669;42.678;23.332;2023-04-30T03:24:24;6.83;;;6.03;;
13208;SDS011;6669;42.678;23.332;2023-04-30T03:26:54;8.90;;;5.93;;
13208;SDS011;6669;42.678;23.332;2023-04-30T03:29:22;7.00;;;5.50;;
13208;SDS011;6669;42.678;23.332;2023-04-30T03:31:50;7.87;;;6.43;;
13208;SDS011;6669;42.678;23.332;2023-04-30T03:34:18;8.43;;;5.80;;
13208;SDS011;6669;42.678;23.332;2023-04-30T03:36:46;7.27;;;6.20;;
13208;SDS011;6669;42.678;23.332;2023-04-30T03:39:14;9.87;;;7.03;;
13208;SDS011;6669;42.678;23.332;2023-04-30T03:41:42;7.60;;;6.20;;
13208;SDS011;6669;42.678;23.332;2023-04-30T03:44:11;8.13;;;5.80;;
13208;SDS011;6669;42.678;23.332;2023-04-30T03:46:41;7.30;;;5.80;;
13208;SDS011;6669;42.678;23.332;2023-04-30T03:49:09;9.67;;;6.03;;
13208;SDS011;6669;42.678;23.332;2023-04-30T03:51:37;7.83;;;6.87;;
13208;SDS011;6669;42.678;23.332;2023-04-30T03:54:07;7.83;;;6.27;;
13208;SDS011;6669;42.678;23.332;2023-04-30T03:56:35;7.50;;;6.00;;
13208;SDS011;6669;42.678;23.332;2023-04-30T03:59:04;9.00;;;6.53;;
13208;SDS011;6669;42.678;23.332;2023-04-30T04:01:33;8.07;;;5.73;;
13208;SDS011;6669;42.678;23.332;2023-04-30T04:04:02;6.33;;;5.73;;
13208;SDS011;6669;42.678;23.332;2023-04-30T04:06:30;8.30;;;6.40;;
13208;SDS011;6669;42.678;23.332;2023-04-30T04:08:58;6.77;;;5.50;;
13208;SDS011;6669;42.678;23.332;2023-04-30T04:11:26;6.80;;;5.43;;
13208;SDS011;6669;42.678;23.332;2023-04-30T04:13:53;7.47;;;5.53;;
13208;SDS011;6669;42.678;23.332;2023-04-30T04:16:22;7.03;;;5.80;;
13208;SDS011;6669;42.678;23.332;2023-04-30T04:18:51;6.10;;;5.20;;
13208;SDS011;6669;42.678;23.332;2023-04-30T04:21:20;5.97;;;4.60;;
13208;SDS011;6669;42.678;23.332;2023-04-30T04:23:48;4.87;;;4.40;;
13208;SDS011;6669;42.678;23.332;2023-04-30T04:26:16;6.10;;;4.87;;
13208;SDS011;6669;42.678;23.332;2023-04-30T04:28:44;5.20;;;4.67;;
13208;SDS011;6669;42.678;23.332;2023-04-30T04:31:13;5.87;;;4.97;;
13208;SDS011;6669;42.678;23.332;2023-04-30T04:33:42;8.13;;;4.80;;
13208;SDS011;6669;42.678;23.332;2023-04-30T04:36:12;5.90;;;5.20;;
13208;SDS011;6669;42.678;23.332;2023-04-30T04:38:40;8.67;;;4.80;;
13208;SDS011;6669;42.678;23.332;2023-04-30T04:41:09;6.03;;;4.83;;
13208;SDS011;6669;42.678;23.332;2023-04-30T04:43:36;6.87;;;5.00;;
13208;SDS011;6669;42.678;23.332;2023-04-30T04:46:04;5.90;;;4.87;;
13208;SDS011;6669;42.678;23.332;2023-04-30T04:48:36;8.00;;;4.77;;
13208;SDS011;6669;42.678;23.332;2023-04-30T04:51:04;5.97;;;4.60;;
13208;SDS011;6669;42.678;23.332;2023-04-30T04:53:33;4.83;;;4.43;;
13208;SDS011;6669;42.678;23.332;2023-04-30T04:56:01;7.97;;;4.60;;
13208;SDS011;6669;42.678;23.332;2023-04-30T04:58:29;5.77;;;4.63;;
13208;SDS011;6669;42.678;23.332;2023-04-30T05:00:58;4.83;;;4.33;;
13208;SDS011;6669;42.678;23.332;2023-04-30T05:03:26;6.87;;;4.70;;
13208;SDS011;6669;42.678;23.332;2023-04-30T05:05:55;5.57;;;4.43;;
13208;SDS011;6669;42.678;23.332;2023-04-30T05:08:23;5.00;;;4.40;;
13208;SDS011;6669;42.678;23.332;2023-04-30T05:10:52;4.80;;;4.27;;
13208;SDS011;6669;42.678;23.332;2023-04-30T05:13:20;6.13;;;4.67;;
13208;SDS011;6669;42.678;23.332;2023-04-30T05:15:49;5.40;;;4.80;;
13208;SDS011;6669;42.678;23.332;2023-04-30T05:18:18;9.40;;;4.50;;
13208;SDS011;6669;42.678;23.332;2023-04-30T05:20:46;6.00;;;4.60;;
13208;SDS011;6669;42.678;23.332;2023-04-30T05:23:14;5.95;;;4.60;;
13208;SDS011;6669;42.678;23.332;2023-04-30T05:25:42;4.95;;;4.43;;
13208;SDS011;6669;42.678;23.332;2023-04-30T05:28:12;6.43;;;4.70;;
13208;SDS011;6669;42.678;23.332;2023-04-30T05:30:40;5.73;;;4.50;;
13208;SDS011;6669;42.678;23.332;2023-04-30T05:33:07;7.73;;;4.87;;
13208;SDS011;6669;42.678;23.332;2023-04-30T05:35:37;4.87;;;4.33;;
13208;SDS011;6669;42.678;23.332;2023-04-30T05:38:05;7.47;;;5.00;;
13208;SDS011;6669;42.678;23.332;2023-04-30T05:40:32;6.93;;;4.17;;
13208;SDS011;6669;42.678;23.332;2023-04-30T05:43:00;7.88;;;4.95;;
13208;SDS011;6669;42.678;23.332;2023-04-30T05:45:30;7.18;;;4.47;;
13208;SDS011;6669;42.678;23.332;2023-04-30T05:47:58;26.60;;;18.75;;
13208;SDS011;6669;42.678;23.332;2023-04-30T05:50:27;6.65;;;5.50;;
13208;SDS011;6669;42.678;23.332;2023-04-30T05:52:55;7.68;;;5.60;;
13208;SDS011;6669;42.678;23.332;2023-04-30T05:55:23;8.30;;;5.50;;
13208;SDS011;6669;42.678;23.332;2023-04-30T05:57:51;7.47;;;5.70;;
13208;SDS011;6669;42.678;23.332;2023-04-30T06:00:19;7.97;;;5.68;;
13208;SDS011;6669;42.678;23.332;2023-04-30T06:02:48;7.28;;;6.00;;
13208;SDS011;6669;42.678;23.332;2023-04-30T06:05:16;7.63;;;6.22;;
13208;SDS011;6669;42.678;23.332;2023-04-30T06:07:44;7.43;;;5.95;;
13208;SDS011;6669;42.678;23.332;2023-04-30T06:10:12;8.75;;;5.78;;
13208;SDS011;6669;42.678;23.332;2023-04-30T06:12:40;7.80;;;5.60;;
13208;SDS011;6669;42.678;23.332;2023-04-30T06:15:08;6.50;;;5.85;;
13208;SDS011;6669;42.678;23.332;2023-04-30T06:17:36;6.18;;;5.40;;
13208;SDS011;6669;42.678;23.332;2023-04-30T06:20:06;6.60;;;5.38;;
13208;SDS011;6669;42.678;23.332;2023-04-30T06:22:35;8.77;;;5.53;;
13208;SDS011;6669;42.678;23.332;2023-04-30T06:25:03;8.80;;;5.22;;
13208;SDS011;6669;42.678;23.332;2023-04-30T06:27:31;7.55;;;5.07;;
13208;SDS011;6669;42.678;23.332;2023-04-30T06:29:59;5.05;;;4.55;;
13208;SDS011;6669;42.678;23.332;2023-04-30T06:32:27;6.68;;;5.03;;
13208;SDS011;6669;42.678;23.332;2023-04-30T06:34:55;7.32;;;4.93;;
13208;SDS011;6669;42.678;23.332;2023-04-30T06:37:24;7.93;;;5.72;;
13208;SDS011;6669;42.678;23.332;2023-04-30T06:39:52;7.30;;;5.93;;
13208;SDS011;6669;42.678;23.332;2023-04-30T06:42:21;9.13;;;6.18;;
13208;SDS011;6669;42.678;23.332;2023-04-30T06:44:49;6.97;;;6.28;;
13208;SDS011;6669;42.678;23.332;2023-04-30T06:47:17;7.93;;;6.60;;
13208;SDS011;6669;42.678;23.332;2023-04-30T06:49:45;7.07;;;6.38;;
13208;SDS011;6669;42.678;23.332;2023-04-30T06:52:13;10.68;;;6.75;;
13208;SDS011;6669;42.678;23.332;2023-04-30T06:54:42;7.63;;;6.38;;
13208;SDS011;6669;42.678;23.332;2023-04-30T06:57:10;7.60;;;5.45;;
13208;SDS011;6669;42.678;23.332;2023-04-30T06:59:38;7.63;;;5.72;;
13208;SDS011;6669;42.678;23.332;2023-04-30T07:02:06;8.25;;;6.72;;
13208;SDS011;6669;42.678;23.332;2023-04-30T07:04:34;8.48;;;6.55;;
13208;SDS011;6669;42.678;23.332;2023-04-30T07:07:02;9.10;;;6.78;;
13208;SDS011;6669;42.678;23.332;2023-04-30T07:09:30;9.82;;;7.03;;
13208;SDS011;6669;42.678;23.332;2023-04-30T07:11:59;6.88;;;6.15;;
13208;SDS011;6669;42.678;23.332;2023-04-30T07:14:27;11.90;;;7.55;;
13208;SDS011;6669;42.678;23.332;2023-04-30T07:16:55;8.40;;;5.80;;
13208;SDS011;6669;42.678;23.332;2023-04-30T07:19:23;7.70;;;6.25;;
13208;SDS011;6669;42.678;23.332;2023-04-30T07:21:52;9.77;;;7.47;;
13208;SDS011;6669;42.678;23.332;2023-04-30T07:24:20;8.70;;;7.20;;
13208;SDS011;6669;42.678;23.332;2023-04-30T07:26:48;7.25;;;5.95;;
13208;SDS011;6669;42.678;23.332;2023-04-30T07:29:17;7.68;;;5.82;;
13208;SDS011;6669;42.678;23.332;2023-04-30T07:31:45;8.73;;;6.80;;
13208;SDS011;6669;42.678;23.332;2023-04-30T07:34:13;9.85;;;5.78;;
13208;SDS011;6669;42.678;23.332;2023-04-30T07:36:41;7.32;;;6.07;;
13208;SDS011;6669;42.678;23.332;2023-04-30T07:39:09;15.18;;;10.75;;
13208;SDS011;6669;42.678;23.332;2023-04-30T07:41:37;12.80;;;7.72;;
13208;SDS011;6669;42.678;23.332;2023-04-30T07:44:05;7.82;;;5.70;;
13208;SDS011;6669;42.678;23.332;2023-04-30T07:46:34;9.57;;;6.75;;
13208;SDS011;6669;42.678;23.332;2023-04-30T07:49:03;6.93;;;5.75;;
13208;SDS011;6669;42.678;23.332;2023-04-30T07:51:31;7.75;;;6.00;;
13208;SDS011;6669;42.678;23.332;2023-04-30T07:53:59;9.85;;;6.05;;
13208;SDS011;6669;42.678;23.332;2023-04-30T07:56:27;8.98;;;4.90;;
13208;SDS011;6669;42.678;23.332;2023-04-30T07:58:55;4.90;;;4.32;;
13208;SDS011;6669;42.678;23.332;2023-04-30T08:01:23;7.40;;;4.50;;
13208;SDS011;6669;42.678;23.332;2023-04-30T08:03:53;13.93;;;7.75;;
13208;SDS011;6669;42.678;23.332;2023-04-30T08:06:21;7.88;;;5.57;;
13208;SDS011;6669;42.678;23.332;2023-04-30T08:08:49;5.00;;;4.38;;
13208;SDS011;6669;42.678;23.332;2023-04-30T08:11:17;5.82;;;3.75;;
13208;SDS011;6669;42.678;23.332;2023-04-30T08:13:47;4.43;;;4.03;;
13208;SDS011;6669;42.678;23.332;2023-04-30T08:16:14;4.00;;;3.60;;
13208;SDS011;6669;42.678;23.332;2023-04-30T08:18:43;5.38;;;3.42;;
13208;SDS011;6669;42.678;23.332;2023-04-30T08:21:13;5.63;;;3.30;;
13208;SDS011;6669;42.678;23.332;2023-04-30T08:23:43;4.53;;;3.00;;
13208;SDS011;6669;42.678;23.332;2023-04-30T08:26:11;5.82;;;3.42;;
13208;SDS011;6669;42.678;23.332;2023-04-30T08:28:39;5.32;;;3.20;;
13208;SDS011;6669;42.678;23.332;2023-04-30T08:31:06;4.75;;;2.92;;
13208;SDS011;6669;42.678;23.332;2023-04-30T08:33:34;4.55;;;3.20;;
13208;SDS011;6669;42.678;23.332;2023-04-30T08:36:02;6.65;;;2.88;;
13208;SDS011;6669;42.678;23.332;2023-04-30T08:38:32;5.55;;;4.72;;
13208;SDS011;6669;42.678;23.332;2023-04-30T08:41:03;3.85;;;3.10;;
13208;SDS011;6669;42.678;23.332;2023-04-30T08:43:35;5.47;;;2.90;;
13208;SDS011;6669;42.678;23.332;2023-04-30T08:46:03;6.10;;;3.30;;
13208;SDS011;6669;42.678;23.332;2023-04-30T08:48:32;2.83;;;2.60;;
13208;SDS011;6669;42.678;23.332;2023-04-30T08:51:01;3.65;;;3.20;;
13208;SDS011;6669;42.678;23.332;2023-04-30T08:53:30;3.00;;;2.70;;
13208;SDS011;6669;42.678;23.332;2023-04-30T08:56:03;4.72;;;3.10;;
13208;SDS011;6669;42.678;23.332;2023-04-30T08:58:32;4.53;;;3.15;;
13208;SDS011;6669;42.678;23.332;2023-04-30T09:01:00;3.97;;;2.95;;
13208;SDS011;6669;42.678;23.332;2023-04-30T09:03:29;4.07;;;2.88;;
13208;SDS011;6669;42.678;23.332;2023-04-30T09:05:57;3.60;;;2.80;;
13208;SDS011;6669;42.678;23.332;2023-04-30T09:08:43;3.35;;;2.90;;
13208;SDS011;6669;42.678;23.332;2023-04-30T09:11:19;3.13;;;2.53;;
13208;SDS011;6669;42.678;23.332;2023-04-30T09:13:49;2.80;;;2.50;;
13208;SDS011;6669;42.678;23.332;2023-04-30T09:16:18;4.55;;;2.55;;
13208;SDS011;6669;42.678;23.332;2023-04-30T09:18:47;3.38;;;2.40;;
13208;SDS011;6669;42.678;23.332;2023-04-30T09:21:15;2.90;;;2.60;;
13208;SDS011;6669;42.678;23.332;2023-04-30T09:23:54;3.20;;;2.70;;
13208;SDS011;6669;42.678;23.332;2023-04-30T09:26:26;3.17;;;2.88;;
13208;SDS011;6669;42.678;23.332;2023-04-30T09:28:58;3.00;;;2.75;;
13208;SDS011;6669;42.678;23.332;2023-04-30T09:31:26;3.83;;;2.50;;
13208;SDS011;6669;42.678;23.332;2023-04-30T09:33:55;4.78;;;3.03;;
13208;SDS011;6669;42.678;23.332;2023-04-30T09:36:23;3.85;;;2.72;;
13208;SDS011;6669;42.678;23.332;2023-04-30T09:38:51;3.28;;;2.70;;
13208;SDS011;6669;42.678;23.332;2023-04-30T09:41:24;2.70;;;2.35;;
13208;SDS011;6669;42.678;23.332;2023-04-30T09:43:54;3.92;;;2.40;;
13208;SDS011;6669;42.678;23.332;2023-04-30T09:46:28;5.57;;;3.92;;
13208;SDS011;6669;42.678;23.332;2023-04-30T09:48:57;5.35;;;2.63;;
13208;SDS011;6669;42.678;23.332;2023-04-30T09:51:27;2.50;;;2.30;;
13208;SDS011;6669;42.678;23.332;2023-04-30T09:53:55;3.08;;;2.78;;
13208;SDS011;6669;42.678;23.332;2023-04-30T09:56:25;3.67;;;2.53;;
13208;SDS011;6669;42.678;23.332;2023-04-30T09:58:53;2.72;;;2.53;;
13208;SDS011;6669;42.678;23.332;2023-04-30T10:01:24;5.57;;;2.60;;
13208;SDS011;6669;42.678;23.332;2023-04-30T10:03:53;3.78;;;2.40;;
13208;SDS011;6669;42.678;23.332;2023-04-30T10:06:21;3.00;;;2.80;;
13208;SDS011;6669;42.678;23.332;2023-04-30T10:08:52;3.55;;;3.20;;
13208;SDS011;6669;42.678;23.332;2023-04-30T10:11:27;3.00;;;2.50;;
13208;SDS011;6669;42.678;23.332;2023-04-30T10:13:59;2.80;;;2.47;;
13208;SDS011;6669;42.678;23.332;2023-04-30T10:16:33;2.35;;;2.15;;
13208;SDS011;6669;42.678;23.332;2023-04-30T10:19:09;2.60;;;2.22;;
13208;SDS011;6669;42.678;23.332;2023-04-30T10:21:41;2.17;;;2.00;;
13208;SDS011;6669;42.678;23.332;2023-04-30T10:24:11;2.25;;;2.00;;
13208;SDS011;6669;42.678;23.332;2023-04-30T10:26:41;2.28;;;2.08;;
13208;SDS011;6669;42.678;23.332;2023-04-30T10:29:11;3.92;;;2.60;;
13208;SDS011;6669;42.678;23.332;2023-04-30T10:31:40;3.05;;;2.40;;
13208;SDS011;6669;42.678;23.332;2023-04-30T10:34:13;3.70;;;2.70;;
13208;SDS011;6669;42.678;23.332;2023-04-30T10:36:49;2.47;;;2.28;;
13208;SDS011;6669;42.678;23.332;2023-04-30T10:39:22;2.42;;;2.22;;
13208;SDS011;6669;42.678;23.332;2023-04-30T10:42:00;5.18;;;2.97;;
13208;SDS011;6669;42.678;23.332;2023-04-30T10:44:30;4.07;;;3.70;;
13208;SDS011;6669;42.678;23.332;2023-04-30T10:46:59;7.18;;;4.72;;
13208;SDS011;6669;42.678;23.332;2023-04-30T10:49:27;5.22;;;3.85;;
13208;SDS011;6669;42.678;23.332;2023-04-30T10:51:57;3.50;;;3.20;;
13208;SDS011;6669;42.678;23.332;2023-04-30T10:54:27;2.90;;;2.70;;
13208;SDS011;6669;42.678;23.332;2023-04-30T10:57:11;3.35;;;2.60;;
13208;SDS011;6669;42.678;23.332;2023-04-30T10:59:43;2.85;;;2.05;;
13208;SDS011;6669;42.678;23.332;2023-04-30T11:02:18;2.40;;;2.20;;
13208;SDS011;6669;42.678;23.332;2023-04-30T11:07:45;4.10;;;3.72;;
13208;SDS011;6669;42.678;23.332;2023-04-30T11:10:15;4.30;;;2.40;;
13208;SDS011;6669;42.678;23.332;2023-04-30T11:12:49;2.95;;;2.30;;
13208;SDS011;6669;42.678;23.332;2023-04-30T11:15:19;2.20;;;2.00;;
13208;SDS011;6669;42.678;23.332;2023-04-30T11:17:48;2.63;;;2.05;;
13208;SDS011;6669;42.678;23.332;2023-04-30T11:20:18;2.70;;;2.50;;
13208;SDS011;6669;42.678;23.332;2023-04-30T11:22:47;2.78;;;2.50;;
13208;SDS011;6669;42.678;23.332;2023-04-30T11:25:17;2.70;;;2.08;;
13208;SDS011;6669;42.678;23.332;2023-04-30T11:27:46;2.63;;;2.00;;
13208;SDS011;6669;42.678;23.332;2023-04-30T11:30:16;6.47;;;2.50;;
13208;SDS011;6669;42.678;23.332;2023-04-30T11:32:46;2.30;;;2.10;;
13208;SDS011;6669;42.678;23.332;2023-04-30T11:35:16;2.25;;;2.03;;
13208;SDS011;6669;42.678;23.332;2023-04-30T11:37:45;3.60;;;2.25;;
13208;SDS011;6669;42.678;23.332;2023-04-30T11:40:14;1.95;;;1.85;;
13208;SDS011;6669;42.678;23.332;2023-04-30T11:42:42;2.00;;;1.83;;
13208;SDS011;6669;42.678;23.332;2023-04-30T11:45:12;2.17;;;1.65;;
13208;SDS011;6669;42.678;23.332;2023-04-30T11:47:45;1.67;;;1.58;;
13208;SDS011;6669;42.678;23.332;2023-04-30T11:50:14;2.25;;;1.90;;
13208;SDS011;6669;42.678;23.332;2023-04-30T11:52:47;3.58;;;1.90;;
13208;SDS011;6669;42.678;23.332;2023-04-30T11:55:16;11.18;;;2.90;;
13208;SDS011;6669;42.678;23.332;2023-04-30T11:57:46;2.30;;;2.10;;
13208;SDS011;6669;42.678;23.332;2023-04-30T12:00:16;2.10;;;2.00;;
13208;SDS011;6669;42.678;23.332;2023-04-30T12:02:47;2.63;;;2.28;;
13208;SDS011;6669;42.678;23.332;2023-04-30T12:05:17;2.80;;;2.03;;
13208;SDS011;6669;42.678;23.332;2023-04-30T12:07:47;2.65;;;2.00;;
13208;SDS011;6669;42.678;23.332;2023-04-30T12:10:17;2.47;;;2.28;;
13208;SDS011;6669;42.678;23.332;2023-04-30T12:12:46;2.35;;;2.10;;
13208;SDS011;6669;42.678;23.332;2023-04-30T12:15:18;2.35;;;2.15;;
13208;SDS011;6669;42.678;23.332;2023-04-30T12:17:53;3.60;;;2.50;;
13208;SDS011;6669;42.678;23.332;2023-04-30T12:20:23;3.28;;;2.30;;
13208;SDS011;6669;42.678;23.332;2023-04-30T12:22:52;2.95;;;2.22;;
13208;SDS011;6669;42.678;23.332;2023-04-30T12:25:21;3.10;;;2.50;;
13208;SDS011;6669;42.678;23.332;2023-04-30T12:27:51;2.28;;;2.10;;
13208;SDS011;6669;42.678;23.332;2023-04-30T12:30:21;2.40;;;2.13;;
13208;SDS011;6669;42.678;23.332;2023-04-30T12:32:55;2.92;;;2.17;;
13208;SDS011;6669;42.678;23.332;2023-04-30T12:35:26;3.10;;;2.50;;
13208;SDS011;6669;42.678;23.332;2023-04-30T12:38:00;2.40;;;2.20;;
13208;SDS011;6669;42.678;23.332;2023-04-30T12:40:29;2.55;;;2.30;;
13208;SDS011;6669;42.678;23.332;2023-04-30T12:43:00;2.20;;;2.00;;
13208;SDS011;6669;42.678;23.332;2023-04-30T12:45:45;4.25;;;2.33;;
13208;SDS011;6669;42.678;23.332;2023-04-30T12:48:18;2.40;;;2.20;;
13208;SDS011;6669;42.678;23.332;2023-04-30T12:50:50;2.30;;;2.10;;
13208;SDS011;6669;42.678;23.332;2023-04-30T12:53:19;1.90;;;1.80;;
13208;SDS011;6669;42.678;23.332;2023-04-30T12:58:35;2.40;;;2.20;;
13208;SDS011;6669;42.678;23.332;2023-04-30T13:01:04;6.55;;;5.90;;
13208;SDS011;6669;42.678;23.332;2023-04-30T13:03:34;2.33;;;1.67;;
13208;SDS011;6669;42.678;23.332;2023-04-30T13:06:02;2.20;;;2.00;;
13208;SDS011;6669;42.678;23.332;2023-04-30T13:08:32;4.03;;;2.13;;
13208;SDS011;6669;42.678;23.332;2023-04-30T13:11:15;2.25;;;2.03;;
13208;SDS011;6669;42.678;23.332;2023-04-30T13:13:43;2.20;;;2.00;;
13208;SDS011;6669;42.678;23.332;2023-04-30T13:16:11;2.63;;;2.00;;
13208;SDS011;6669;42.678;23.332;2023-04-30T13:18:40;2.22;;;1.98;;
13208;SDS011;6669;42.678;23.332;2023-04-30T13:21:08;2.13;;;2.00;;
13208;SDS011;6669;42.678;23.332;2023-04-30T13:23:39;4.00;;;2.08;;
13208;SDS011;6669;42.678;23.332;2023-04-30T13:26:19;2.30;;;2.10;;
13208;SDS011;6669;42.678;23.332;2023-04-30T13:28:52;2.28;;;2.05;;
13208;SDS011;6669;42.678;23.332;2023-04-30T13:31:23;2.20;;;2.00;;
13208;SDS011;6669;42.678;23.332;2023-04-30T13:33:52;1.60;;;1.50;;
13208;SDS011;6669;42.678;23.332;2023-04-30T13:36:21;1.88;;;1.77;;
13208;SDS011;6669;42.678;23.332;2023-04-30T13:38:49;2.45;;;1.70;;
13208;SDS011;6669;42.678;23.332;2023-04-30T13:41:17;2.65;;;1.70;;
13208;SDS011;6669;42.678;23.332;2023-04-30T13:43:47;2.45;;;1.98;;
13208;SDS011;6669;42.678;23.332;2023-04-30T13:46:15;1.90;;;1.80;;
13208;SDS011;6669;42.678;23.332;2023-04-30T13:48:43;2.95;;;2.08;;
13208;SDS011;6669;42.678;23.332;2023-04-30T13:51:16;2.13;;;1.92;;
13208;SDS011;6669;42.678;23.332;2023-04-30T13:53:44;4.05;;;2.50;;
13208;SDS011;6669;42.678;23.332;2023-04-30T13:56:12;2.50;;;2.30;;
13208;SDS011;6669;42.678;23.332;2023-04-30T13:58:40;3.85;;;2.20;;
13208;SDS011;6669;42.678;23.332;2023-04-30T14:01:09;3.65;;;2.20;;
13208;SDS011;6669;42.678;23.332;2023-04-30T14:03:44;2.40;;;2.20;;
13208;SDS011;6669;42.678;23.332;2023-04-30T14:06:14;2.72;;;2.10;;
13208;SDS011;6669;42.678;23.332;2023-04-30T14:08:49;2.50;;;2.25;;
13208;SDS011;6669;42.678;23.332;2023-04-30T14:11:17;4.22;;;2.20;;
13208;SDS011;6669;42.678;23.332;2023-04-30T14:13:45;1.80;;;1.70;;
13208;SDS011;6669;42.678;23.332;2023-04-30T14:16:13;2.70;;;1.80;;
13208;SDS011;6669;42.678;23.332;2023-04-30T14:18:44;2.00;;;1.80;;
13208;SDS011;6669;42.678;23.332;2023-04-30T14:21:16;2.25;;;2.05;;
13208;SDS011;6669;42.678;23.332;2023-04-30T14:23:44;1.85;;;1.60;;
13208;SDS011;6669;42.678;23.332;2023-04-30T14:26:15;3.03;;;2.53;;
13208;SDS011;6669;42.678;23.332;2023-04-30T14:28:43;1.88;;;1.70;;
13208;SDS011;6669;42.678;23.332;2023-04-30T14:31:11;4.43;;;2.63;;
13208;SDS011;6669;42.678;23.332;2023-04-30T14:33:40;3.22;;;1.85;;
13208;SDS011;6669;42.678;23.332;2023-04-30T14:36:11;1.83;;;1.73;;
13208;SDS011;6669;42.678;23.332;2023-04-30T14:38:44;2.00;;;1.90;;
13208;SDS011;6669;42.678;23.332;2023-04-30T14:41:12;2.00;;;1.90;;
13208;SDS011;6669;42.678;23.332;2023-04-30T14:43:41;1.92;;;1.83;;
13208;SDS011;6669;42.678;23.332;2023-04-30T14:46:09;1.75;;;1.65;;
13208;SDS011;6669;42.678;23.332;2023-04-30T14:48:37;3.25;;;2.67;;
13208;SDS011;6669;42.678;23.332;2023-04-30T14:51:08;3.47;;;1.67;;
13208;SDS011;6669;42.678;23.332;2023-04-30T14:53:36;2.20;;;2.00;;
13208;SDS011;6669;42.678;23.332;2023-04-30T14:56:07;3.10;;;1.88;;
13208;SDS011;6669;42.678;23.332;2023-04-30T14:58:39;1.65;;;1.55;;
13208;SDS011;6669;42.678;23.332;2023-04-30T15:01:06;2.30;;;2.10;;
13208;SDS011;6669;42.678;23.332;2023-04-30T15:03:34;4.18;;;2.00;;
13208;SDS011;6669;42.678;23.332;2023-04-30T15:06:07;3.20;;;2.00;;